Terminal Aerodrome Forecast
Issued by NWS

Home | Current Version | Previous Version | Text Only | Print | Product List | Glossary On
Versions: 1 2 3 4 5 6 7 8 9 10 11 12
000
FTUS44 KCRP 261122
TAFLRD
TAF
KLRD 261122Z 2612/2712 09005KT P6SM FEW020
     FM262000 11015KT P6SM SCT040 BKN080
     FM270400 11005KT P6SM SCT030 BKN250=

USA.gov is the U.S. government's official web portal to all federal, state and local government web resources and services.